Zephyr — WDA6249 — position and weather

sailwx.info

Track history (hours):
 
Tides and Currents Weather Stations Pressure Air Temp Water Temp Dewpoint Dewpoint Depression Visibility Wind Speed Wind Dir Waves Ship Positions

Oceanographic research ship Zephyr (USA)

Detailed information on ship capabilities available from University of Delaware's Ocean Information Center.

Owner: Monterey Bay Aquarium Research Institute, Moss Landing, CA. More information available from US FCC via Universal Licensing System and Coast Guard Vessel Documentation Center.

Last reported at 2012-Sep-14 19:27 UTC. Time now 2019-Sep-22 00:02 UTC.
Position N 36°32' W 122°06'.
Warning: this ship's position is years out of date!

Length 25 m; draft 3 m.

Type: Dredging. MMSI: 366830310.

Date/timePositionNaut miles runAvg speedWind from/ knotsBaromVisibWave heightAir tempDewpointWater temp
2012-Sep-14 19:27N 36°32' W 122°06'910.5
2012-Sep-14 18:33N 36°24' W 122°13'1010.4
2012-Sep-14 17:33N 36°16' W 122°20'4 1.7
2012-Sep-14 15:28N 36°19' W 122°22'4 0.5
2012-Sep-14 07:33N 36°17' W 122°18'0 0.2
2012-Sep-14 06:33N 36°17' W 122°18'10 5.0
2012-Sep-14 04:34N 36°25' W 122°25'3 2.8
2012-Sep-14 03:33N 36°26' W 122°28'4 0.2
2012-Sep-13 11:28N 36°24' W 122°32'1 0.2
2012-Sep-13 04:36N 36°25' W 122°33'0 0.5
2012-Sep-13 03:33N 36°25' W 122°33'2 0.6
2012-Sep-12 23:31N 36°27' W 122°35'4 4.3
2012-Sep-12 22:33N 36°28' W 122°40'2 2.1
2012-Sep-12 21:28N 36°26' W 122°39'1 0.4
2012-Sep-12 18:29N 36°26' W 122°37'0 0.2
2012-Sep-12 17:28N 36°26' W 122°38'0 0.1
2012-Sep-12 16:31N 36°26' W 122°38'0 0.3
2012-Sep-12 15:26N 36°26' W 122°38'2 0.3
2012-Sep-12 09:33N 36°26' W 122°40'2 0.8
2012-Sep-12 07:33N 36°27' W 122°41'2 2.1
2012-Sep-12 06:26N 36°29' W 122°42'3 0.5
2012-Sep-12 01:33N 36°27' W 122°43'2 0.5
2012-Sep-11 22:28N 36°27' W 122°45'40 4.5
2012-Sep-11 13:31N 36°07' W 123°29'47 3.1
2012-Sep-10 22:33N 36°29' W 122°37'11 9.8
2012-Sep-10 21:27N 36°33' W 122°25'19 9.8
2012-Sep-10 19:33N 36°42' W 122°05'  
Track history (hours):
 
Tides and Currents Weather Stations Pressure Air Temp Water Temp Dewpoint Dewpoint Depression Visibility Wind Speed Wind Dir Waves Ship Positions

Oceanographic research ship Zephyr (USA)

Detailed information on ship capabilities available from University of Delaware's Ocean Information Center.

Owner: Monterey Bay Aquarium Research Institute, Moss Landing, CA. More information available from US FCC via Universal Licensing System and Coast Guard Vessel Documentation Center.

Last reported at 2012-Sep-14 19:27 UTC. Time now 2019-Sep-22 00:02 UTC.
Position N 36°32' W 122°06'.
Warning: this ship's position is years out of date!

Length 25 m; draft 3 m.

Type: Dredging. MMSI: 366830310.

Date/timePositionNaut miles runAvg speedWind from/ knotsBaromVisibWave heightAir tempDewpointWater temp
2012-Sep-14 19:27N 36°32' W 122°06'910.5
2012-Sep-14 18:33N 36°24' W 122°13'1010.4
2012-Sep-14 17:33N 36°16' W 122°20'4 1.7
2012-Sep-14 15:28N 36°19' W 122°22'4 0.5
2012-Sep-14 07:33N 36°17' W 122°18'0 0.2
2012-Sep-14 06:33N 36°17' W 122°18'10 5.0
2012-Sep-14 04:34N 36°25' W 122°25'3 2.8
2012-Sep-14 03:33N 36°26' W 122°28'4 0.2
2012-Sep-13 11:28N 36°24' W 122°32'1 0.2
2012-Sep-13 04:36N 36°25' W 122°33'0 0.5
2012-Sep-13 03:33N 36°25' W 122°33'2 0.6
2012-Sep-12 23:31N 36°27' W 122°35'4 4.3
2012-Sep-12 22:33N 36°28' W 122°40'2 2.1
2012-Sep-12 21:28N 36°26' W 122°39'1 0.4
2012-Sep-12 18:29N 36°26' W 122°37'0 0.2
2012-Sep-12 17:28N 36°26' W 122°38'0 0.1
2012-Sep-12 16:31N 36°26' W 122°38'0 0.3
2012-Sep-12 15:26N 36°26' W 122°38'2 0.3
2012-Sep-12 09:33N 36°26' W 122°40'2 0.8
2012-Sep-12 07:33N 36°27' W 122°41'2 2.1
2012-Sep-12 06:26N 36°29' W 122°42'3 0.5
2012-Sep-12 01:33N 36°27' W 122°43'2 0.5
2012-Sep-11 22:28N 36°27' W 122°45'40 4.5
2012-Sep-11 13:31N 36°07' W 123°29'47 3.1
2012-Sep-10 22:33N 36°29' W 122°37'11 9.8
2012-Sep-10 21:27N 36°33' W 122°25'19 9.8
2012-Sep-10 19:33N 36°42' W 122°05'  

Dump ship's entire track history